Nisswa, MN (56468)

9:38 AM CST on March 04, 2015 (GMT -0600)
White Pine Icelandics | Change Station
CLOSE
Current Station
Personal Weather Station
Location: Lake Shore, MN
Elevation: 1250 ft
Nearby Weather Stations

Elev 1250 ft 46.46 °N, 94.36 °W | Updated 32 seconds ago

Clear
Clear
-0.1 °F
Feels Like -11 °F
N
5.0
Wind Variable Wind from West
Gusts 8.0 mph

Today
High -- | Low -- °F
--% Chance of Precip.
Yesterday
High -- | Low -- °F
Precip. -- in
6:51 AM 6:07 PM
Waxing Gibbous, 99% visible
Pressure 30.23 in
Visibility 10.0 miles
Clouds Clear
Windchill -11 °F
Dew Point -9 °F
Humidity 65%
Rainfall 0.00 in
Snow Depth Not available.
UV 1 out of 12
Pollen .10 out of 12
Air Quality Not available.
Flu Activity Not available.
METAR KBRD 041453Z AUTO 29008KT 10SM CLR M20/M24 A3012 RMK AO2 SLP237 T12001244 53023

More Conditions Fewer Conditions

Pressure 30.23 in
Visibility 10.0 miles
Clouds Clear
Windchill -11 °F
Dew Point -9 °F
Humidity 65%
Rainfall 0.00 in
Snow Depth Not available.
UV 1 out of 12
Pollen .10 out of 12
Air Quality Not available.
Flu Activity Not available.
METAR KBRD 041453Z AUTO 29008KT 10SM CLR M20/M24 A3012 RMK AO2 SLP237 T12001244 53023

More Conditions Fewer Conditions

10-Day Weather Forecast

Almanac

Astronomy

Mar. 04, 2015 Rise Set
Actual Time
Civil Twilight
Nautical Twilight
Astronomical Twilight
Moon
Length of Visible Light
Length of Day
Tomorrow will be .
, % of the Moon is Illuminated

Today's Extremes

State Highs State Lows

Community

WunderPhotos

Upload Photos

1,802,490 photos uploaded!

WunderBlogs® & News

Nearby

Air Quality

  Air Quality AQ Index Pollutant
Not available.

Snow Depth

Station Depth Elevation

Earthquake Activity

City Distance Mag. Time & Date
Minimum magnitude displayed is 2.5.

Coastal Water Temperatures

Place Temperature

Nearby Weather Stations

Wind Chill Advisory
Statement as of 3:01 AM CST on March 04, 2015

... Wind Chill Advisory remains in effect until noon CST today...

* locations... northeast Minnesota.

* Winds... west 10 to 15 mph.

* Wind chill values... as low as 30 below.

* Impacts... frost bite can develop in about 10 to 30 minutes
under these conditions.

Precautionary/preparedness actions...

A Wind Chill Advisory means that very cold air and winds will
combine to generate low wind chills. This will result in frost
bite and lead to hypothermia if precautions are not taken. If you
must venture outdoors... make sure you wear a hat and gloves.